Time;durP1;ratioP1;P1;durP2;ratioP2;P2;SDS_P1;SDS_P2;PMS_P1;PMS_P2;Temp;Humidity;BMP_temperature;BMP_pressure;BME280_temperature;BME280_humidity;BME280_pressure;Samples;Min_cycle;Max_cycle;Signal;HPM_P1;HPM_P2
2023/01/03 00:01:41;;;;;;;42.90;10.93;;;;;;;-142.25;100.00;58004.16;5036754;28;20098;-69
2023/01/03 00:04:07;;;;;;;25.33;9.03;;;;;;;-142.25;100.00;58004.16;5036908;28;20045;-68
2023/01/03 00:06:52;;;;;;;16.77;8.43;;;;;;;-142.25;100.00;58004.16;5038457;28;20056;-69
2023/01/03 00:09:21;;;;;;;15.50;8.15;;;;;;;-142.25;100.00;58004.16;5036772;28;20041;-69
2023/01/03 00:14:35;;;;;;;14.10;8.93;;;;;;;-142.25;100.00;58004.16;5034720;28;20443;-69
2023/01/03 00:17:02;;;;;;;12.63;8.27;;;;;;;-142.25;100.00;58004.16;5036500;28;20501;-69
2023/01/03 00:19:31;;;;;;;12.13;7.97;;;;;;;-142.25;100.00;58004.16;5036682;28;20037;-69
2023/01/03 00:21:57;;;;;;;11.63;7.67;;;;;;;-142.25;100.00;58004.16;5035769;28;20044;-70
2023/01/03 00:24:23;;;;;;;15.70;9.67;;;;;;;-142.25;100.00;58004.16;5035634;28;20075;-70
2023/01/03 00:26:49;;;;;;;12.90;8.27;;;;;;;-142.25;100.00;58004.16;5038312;28;20585;-69
2023/01/03 00:29:15;;;;;;;11.03;7.70;;;;;;;-142.25;100.00;58004.16;5034853;28;20037;-69
2023/01/03 00:31:42;;;;;;;12.80;8.60;;;;;;;-142.25;100.00;58004.16;5031960;28;20389;-69
2023/01/03 00:34:08;;;;;;;10.73;7.77;;;;;;;-142.25;100.00;58004.16;5035227;28;20087;-69
2023/01/03 00:36:35;;;;;;;13.80;9.20;;;;;;;-142.25;100.00;58004.16;5034786;28;20941;-69
2023/01/03 00:39:01;;;;;;;16.20;9.97;;;;;;;-142.25;100.00;58004.16;5035123;28;20120;-69
2023/01/03 00:41:27;;;;;;;11.80;8.33;;;;;;;-142.25;100.00;58004.16;5035636;28;20383;-69
2023/01/03 00:43:52;;;;;;;14.23;9.00;;;;;;;-142.25;100.00;58004.16;5035066;28;20438;-69
2023/01/03 00:46:19;;;;;;;10.13;7.67;;;;;;;-142.25;100.00;58004.16;5035922;28;20051;-69
2023/01/03 00:48:46;;;;;;;11.67;8.60;;;;;;;-142.25;100.00;58004.16;5041263;28;20497;-72
2023/01/03 00:51:15;;;;;;;13.47;9.33;;;;;;;-142.25;100.00;58004.16;5037410;28;20068;-71
2023/01/03 00:53:42;;;;;;;11.63;7.97;;;;;;;-142.25;100.00;58004.16;5045929;28;20120;-70
2023/01/03 00:56:18;;;;;;;12.47;8.70;;;;;;;-142.25;100.00;58004.16;5036959;28;20514;-68
2023/01/03 00:58:45;;;;;;;11.37;8.47;;;;;;;-142.25;100.00;58004.16;5034439;28;20041;-69
2023/01/03 01:01:29;;;;;;;16.60;9.17;;;;;;;-142.25;100.00;58004.16;5034008;28;20033;-69
2023/01/03 01:04:03;;;;;;;17.40;9.23;;;;;;;-142.25;100.00;58004.16;5034464;28;20581;-68
2023/01/03 01:06:33;;;;;;;15.23;10.02;;;;;;;-142.25;100.00;58004.16;5030877;28;20037;-69
2023/01/03 01:09:01;;;;;;;15.87;8.50;;;;;;;-142.25;100.00;58004.16;5030931;28;21167;-69
2023/01/03 01:11:27;;;;;;;17.37;9.90;;;;;;;-142.25;100.00;58004.16;5034284;28;20044;-69
2023/01/03 01:13:54;;;;;;;15.60;9.60;;;;;;;-142.25;100.00;58004.16;5034279;28;20037;-69
2023/01/03 01:16:22;;;;;;;16.37;10.43;;;;;;;-142.25;100.00;58004.16;5032197;28;20535;-69
2023/01/03 01:18:52;;;;;;;17.57;9.37;;;;;;;-142.25;100.00;58004.16;5033955;28;20091;-69
2023/01/03 01:21:27;;;;;;;13.93;9.37;;;;;;;-142.25;100.00;58004.16;5033843;28;20041;-68
2023/01/03 01:23:53;;;;;;;15.88;8.93;;;;;;;-142.25;100.00;58004.16;5034233;28;20044;-69
2023/01/03 01:26:21;;;;;;;15.47;10.20;;;;;;;-142.25;100.00;58004.16;5032022;28;20049;-69
2023/01/03 01:28:47;;;;;;;15.77;9.93;;;;;;;-142.25;100.00;58004.16;5032456;28;20044;-69
2023/01/03 01:31:15;;;;;;;15.20;9.67;;;;;;;-142.25;100.00;58004.16;5033548;28;20479;-69
2023/01/03 01:33:42;;;;;;;17.53;11.03;;;;;;;-142.25;100.00;58004.16;5034262;28;20423;-69
2023/01/03 01:36:19;;;;;;;23.60;11.37;;;;;;;-142.25;100.00;58004.16;5030731;28;20091;-69
2023/01/03 01:38:46;;;;;;;17.93;9.83;;;;;;;-142.25;100.00;58004.16;5034909;28;20072;-69
2023/01/03 01:41:15;;;;;;;17.27;10.67;;;;;;;-142.25;100.00;58004.16;5034019;28;20063;-70
2023/01/03 01:46:43;;;;;;;16.93;10.07;;;;;;;-142.25;100.00;58004.16;5038681;28;20144;-69
2023/01/03 01:49:15;;;;;;;21.33;11.57;;;;;;;-142.25;100.00;58004.16;5032945;28;20057;-70
2023/01/03 01:51:41;;;;;;;26.60;12.60;;;;;;;-142.25;100.00;58004.16;5033356;28;20463;-69
2023/01/03 01:54:07;;;;;;;28.77;10.63;;;;;;;-142.25;100.00;58004.16;5034979;28;20033;-68
2023/01/03 01:56:41;;;;;;;27.93;11.50;;;;;;;-142.25;100.00;58004.16;5032297;28;20179;-69
2023/01/03 01:59:10;;;;;;;15.90;10.10;;;;;;;-142.25;100.00;58004.16;5032813;28;20554;-69
2023/01/03 02:01:37;;;;;;;32.63;12.20;;;;;;;-142.25;100.00;58004.16;5037613;28;20045;-69
2023/01/03 02:04:20;;;;;;;27.90;10.70;;;;;;;-142.25;100.00;58004.16;5032869;28;20124;-71
2023/01/03 02:06:46;;;;;;;24.97;11.30;;;;;;;-142.25;100.00;58004.16;5031654;28;20052;-70
2023/01/03 02:09:12;;;;;;;26.30;11.53;;;;;;;-142.25;100.00;58004.16;5034551;28;20096;-69
2023/01/03 02:14:43;;;;;;;23.43;11.70;;;;;;;-142.25;100.00;58004.16;5033064;28;20581;-69
2023/01/03 02:17:23;;;;;;;26.30;12.70;;;;;;;-142.25;100.00;58004.16;5039796;28;20052;-70
2023/01/03 02:20:06;;;;;;;41.40;13.33;;;;;;;-142.25;100.00;58004.16;5038482;28;20495;-69
2023/01/03 02:23:11;;;;;;;31.70;12.53;;;;;;;-142.25;100.00;58004.16;5036189;28;20144;-70
2023/01/03 02:26:11;;;;;;;25.20;11.53;;;;;;;-142.25;100.00;58004.16;5036948;28;20056;-68
2023/01/03 02:29:15;;;;;;;31.07;12.00;;;;;;;-142.25;100.00;58004.16;5026109;28;20420;-68
2023/01/03 02:32:15;;;;;;;37.03;13.47;;;;;;;-142.25;100.00;58004.16;4992102;28;20094;-70
2023/01/03 02:35:15;;;;;;;28.60;11.47;;;;;;;-142.25;100.00;58004.16;4993076;28;20117;-69
2023/01/03 02:37:52;;;;;;;26.27;11.47;;;;;;;-142.25;100.00;58004.16;4990299;28;20030;-69
2023/01/03 02:40:24;;;;;;;30.80;12.13;;;;;;;-142.25;100.00;58004.16;4988444;28;20204;-68
2023/01/03 02:43:04;;;;;;;35.50;11.27;;;;;;;-142.25;100.00;58004.16;4993748;28;20065;-69
2023/01/03 02:46:11;;;;;;;33.13;12.60;;;;;;;-142.25;100.00;58004.16;4979348;28;20376;-70
2023/01/03 02:48:55;;;;;;;19.83;11.30;;;;;;;-142.25;100.00;58004.16;4994293;28;20591;-69
2023/01/03 02:51:40;;;;;;;28.27;12.23;;;;;;;-142.25;100.00;58004.16;4981127;28;20041;-69
2023/01/03 02:54:10;;;;;;;28.17;13.27;;;;;;;-142.25;100.00;58004.16;4995688;28;20053;-70
2023/01/03 02:56:43;;;;;;;20.03;9.83;;;;;;;-142.25;100.00;58004.16;4993877;28;20178;-70
2023/01/03 02:59:13;;;;;;;56.47;13.60;;;;;;;-142.25;100.00;58004.16;4981781;28;20648;-70
2023/01/03 03:01:43;;;;;;;42.87;12.67;;;;;;;-142.25;100.00;58004.16;4994574;28;20054;-70
2023/01/03 03:04:13;;;;;;;37.87;13.07;;;;;;;-142.25;100.00;58004.16;4997083;28;20187;-71
2023/01/03 03:06:56;;;;;;;33.57;11.93;;;;;;;-142.25;100.00;58004.16;4996441;28;20054;-71
2023/01/03 03:09:23;;;;;;;32.40;11.27;;;;;;;-142.25;100.00;58004.16;5029334;28;20085;-70
2023/01/03 03:14:44;;;;;;;29.93;13.00;;;;;;;-142.25;100.00;58004.16;5031626;28;20064;-68
2023/01/03 03:17:12;;;;;;;;;;;;;;;-142.25;100.00;58004.16;5035956;28;20127;-71
2023/01/03 03:25:44;;;;;;;17.13;10.47;;;;;;;-142.25;100.00;58004.16;5036821;28;20142;-70
2023/01/03 03:31:21;;;;;;;17.33;9.80;;;;;;;-142.25;100.00;58004.16;5037684;28;20073;-68
2023/01/03 03:33:53;;;;;;;20.00;10.30;;;;;;;-142.25;100.00;58004.16;5038660;28;20056;-68
2023/01/03 03:36:31;;;;;;;16.67;10.33;;;;;;;-142.25;100.00;58004.16;5037495;28;20814;-68
2023/01/03 03:38:57;;;;;;;14.00;9.30;;;;;;;-142.25;100.00;58004.16;5034474;28;20075;-69
2023/01/03 03:47:36;;;;;;;15.57;9.80;;;;;;;-142.25;100.00;58004.16;5037771;28;20045;-68
2023/01/03 03:50:06;;;;;;;16.43;10.10;;;;;;;-142.25;100.00;58004.16;5035679;28;20412;-70
2023/01/03 03:52:34;;;;;;;12.87;8.83;;;;;;;-142.25;100.00;58004.16;5034278;28;20215;-71
2023/01/03 03:55:10;;;;;;;16.23;9.30;;;;;;;-142.25;100.00;58004.16;5036447;28;20052;-68
2023/01/03 03:57:45;;;;;;;15.10;9.47;;;;;;;-142.25;100.00;58004.16;5037171;28;20484;-68
2023/01/03 04:00:15;;;;;;;15.30;9.10;;;;;;;-142.25;100.00;58004.16;5037373;28;20164;-69
2023/01/03 04:02:45;;;;;;;13.23;8.27;;;;;;;-142.25;100.00;58004.16;5032369;28;20104;-69
2023/01/03 04:05:14;;;;;;;13.03;8.13;;;;;;;-142.25;100.00;58004.16;5037972;28;20059;-69
2023/01/03 04:07:40;;;;;;;9.03;7.23;;;;;;;-142.25;100.00;58004.16;5035048;28;20044;-70
2023/01/03 04:10:08;;;;;;;13.67;8.37;;;;;;;-142.25;100.00;58004.16;5040501;28;20037;-70
2023/01/03 04:12:33;;;;;;;10.57;6.80;;;;;;;-142.25;100.00;58004.16;5036426;28;20137;-69
2023/01/03 04:14:59;;;;;;;12.60;8.10;;;;;;;-142.25;100.00;58004.16;5038060;28;20392;-70
2023/01/03 04:17:25;;;;;;;8.90;6.43;;;;;;;-142.25;100.00;58004.16;5034064;28;20033;-70
2023/01/03 04:19:52;;;;;;;11.73;7.27;;;;;;;-142.25;100.00;58004.16;5038781;28;20045;-69
2023/01/03 04:22:17;;;;;;;9.63;7.20;;;;;;;-142.25;100.00;58004.16;5034818;28;20113;-69
2023/01/03 04:24:43;;;;;;;10.83;7.47;;;;;;;-142.25;100.00;58004.16;5036358;28;20037;-69
2023/01/03 04:27:09;;;;;;;12.97;8.50;;;;;;;-142.25;100.00;58004.16;5037914;28;20590;-69
2023/01/03 04:29:34;;;;;;;9.87;7.07;;;;;;;-142.25;100.00;58004.16;5036569;28;20358;-68
2023/01/03 04:32:00;;;;;;;11.57;7.63;;;;;;;-142.25;100.00;58004.16;5031489;28;20045;-69
2023/01/03 04:34:26;;;;;;;12.70;8.40;;;;;;;-142.25;100.00;58004.16;5032000;28;20049;-68
2023/01/03 04:36:52;;;;;;;9.47;7.13;;;;;;;-142.25;100.00;58004.16;5035816;28;20056;-71
2023/01/03 04:39:17;;;;;;;11.43;7.77;;;;;;;-142.25;100.00;58004.16;5035137;28;20122;-70
2023/01/03 04:41:43;;;;;;;12.53;8.30;;;;;;;-142.25;100.00;58004.16;5035857;28;20049;-70
2023/01/03 04:44:09;;;;;;;14.70;8.27;;;;;;;-142.25;100.00;58004.16;5036309;28;20030;-71
2023/01/03 04:46:37;;;;;;;13.83;9.00;;;;;;;-142.25;100.00;58004.16;5037223;28;20333;-70
2023/01/03 04:49:05;;;;;;;17.63;10.90;;;;;;;-142.25;100.00;58004.16;5034801;28;20510;-69
2023/01/03 04:51:31;;;;;;;34.13;15.50;;;;;;;-142.25;100.00;58004.16;5037672;28;20029;-69
2023/01/03 04:53:57;;;;;;;16.03;10.57;;;;;;;-142.25;100.00;58004.16;5033796;28;20049;-69
2023/01/03 04:56:27;;;;;;;21.07;11.20;;;;;;;-142.25;100.00;58004.16;5037435;28;20056;-71
2023/01/03 04:58:53;;;;;;;18.03;10.67;;;;;;;-142.25;100.00;58004.16;5035896;28;20047;-69
2023/01/03 05:01:19;;;;;;;24.33;12.17;;;;;;;-142.25;100.00;58004.16;5035609;28;20600;-69
2023/01/03 05:03:45;;;;;;;27.63;12.87;;;;;;;-142.25;100.00;58004.16;5036838;28;20120;-70
2023/01/03 05:06:11;;;;;;;20.10;11.03;;;;;;;-142.25;100.00;58004.16;5034147;28;20158;-70
2023/01/03 05:08:37;;;;;;;20.17;11.43;;;;;;;-142.25;100.00;58004.16;5039551;28;20066;-69
2023/01/03 05:11:04;;;;;;;29.07;15.30;;;;;;;-142.25;100.00;58004.16;5033363;28;20033;-71
2023/01/03 05:13:32;;;;;;;36.80;18.57;;;;;;;-142.25;100.00;58004.16;5033766;28;20048;-71
2023/01/03 05:16:06;;;;;;;35.13;17.90;;;;;;;-142.25;100.00;58004.16;5035766;28;20059;-71
2023/01/03 05:18:32;;;;;;;25.92;15.52;;;;;;;-142.25;100.00;58004.16;5035734;28;20046;-70
2023/01/03 05:26:43;;;;;;;17.37;9.60;;;;;;;-142.25;100.00;58004.16;5035477;28;20049;-71
2023/01/03 05:29:10;;;;;;;18.83;10.97;;;;;;;-142.25;100.00;58004.16;5036281;28;20045;-70
2023/01/03 05:31:36;;;;;;;18.03;10.67;;;;;;;-142.25;100.00;58004.16;5036672;28;20052;-72
2023/01/03 05:34:02;;;;;;;30.67;14.03;;;;;;;-142.25;100.00;58004.16;5037093;28;20037;-72
2023/01/03 05:36:28;;;;;;;23.50;12.60;;;;;;;-142.25;100.00;58004.16;5036462;28;20526;-72
2023/01/03 05:38:53;;;;;;;19.90;11.23;;;;;;;-142.25;100.00;58004.16;5033722;28;20044;-70
2023/01/03 05:41:58;;;;;;;24.63;14.17;;;;;;;-142.25;100.00;58004.16;5037608;28;20138;-69
2023/01/03 05:44:05;;;;;;;14.98;9.98;;;;;;;-142.25;100.00;58004.16;5035728;28;20512;-70
2023/01/03 05:46:31;;;;;;;13.90;9.33;;;;;;;-142.25;100.00;58004.16;5033486;28;20668;-70
2023/01/03 05:48:57;;;;;;;15.27;9.17;;;;;;;-142.25;100.00;58004.16;5040286;28;20045;-70
2023/01/03 05:51:23;;;;;;;16.60;9.07;;;;;;;-142.25;100.00;58004.16;5044020;28;20041;-70
2023/01/03 05:53:48;;;;;;;13.83;10.47;;;;;;;-142.25;100.00;58004.16;5034927;28;20044;-71
2023/01/03 05:56:15;;;;;;;14.63;9.73;;;;;;;-142.25;100.00;58004.16;5035742;28;20073;-71
2023/01/03 05:58:43;;;;;;;12.93;9.27;;;;;;;-142.25;100.00;58004.16;5032581;28;20049;-70
2023/01/03 06:01:11;;;;;;;15.60;10.67;;;;;;;-142.25;100.00;58004.16;5040637;28;20038;-70
2023/01/03 06:03:36;;;;;;;13.47;9.10;;;;;;;-142.25;100.00;58004.16;5039979;28;20048;-71
2023/01/03 06:06:03;;;;;;;15.23;8.50;;;;;;;-142.25;100.00;58004.16;5037890;28;20041;-70
2023/01/03 06:08:29;;;;;;;14.73;9.53;;;;;;;-142.25;100.00;58004.16;5038515;28;20041;-70
2023/01/03 06:10:55;;;;;;;15.90;9.57;;;;;;;-142.25;100.00;58004.16;5039339;28;20388;-70
2023/01/03 06:13:22;;;;;;;13.17;8.70;;;;;;;-142.25;100.00;58004.16;5038608;28;20483;-71
2023/01/03 06:17:53;;;;;;;15.00;9.57;;;;;;;-142.25;100.00;58004.16;5039679;28;20052;-70
2023/01/03 06:18:35;;;;;;;14.80;9.03;;;;;;;-142.25;100.00;58004.16;5037030;28;20052;-69
2023/01/03 06:21:04;;;;;;;14.43;9.20;;;;;;;-142.25;100.00;58004.16;5038640;28;20045;-71
2023/01/03 06:23:30;;;;;;;20.20;11.37;;;;;;;-142.25;100.00;58004.16;5035962;28;20099;-71
2023/01/03 06:25:56;;;;;;;15.87;10.17;;;;;;;-142.25;100.00;58004.16;5039593;28;20045;-72
2023/01/03 06:28:22;;;;;;;22.53;13.03;;;;;;;-142.25;100.00;58004.16;5039628;28;20465;-71
2023/01/03 06:30:47;;;;;;;21.80;12.23;;;;;;;-142.25;100.00;58004.16;5028820;28;20156;-72
2023/01/03 06:33:16;;;;;;;17.40;12.10;;;;;;;-142.25;100.00;58004.16;5042882;28;20041;-72
2023/01/03 06:35:41;;;;;;;18.37;11.87;;;;;;;-142.25;100.00;58004.16;5038777;28;20048;-71
2023/01/03 06:38:07;;;;;;;51.80;22.17;;;;;;;-142.25;100.00;58004.16;5040679;28;20052;-71
2023/01/03 06:40:32;;;;;;;237.00;86.73;;;;;;;-142.25;100.00;58004.16;5040972;28;20100;-72
2023/01/03 06:43:01;;;;;;;68.77;31.00;;;;;;;-142.25;100.00;58004.16;5038778;28;20041;-72
2023/01/03 06:53:42;;;;;;;63.83;31.93;;;;;;;-142.25;100.00;58004.16;5035478;28;20041;-72
2023/01/03 06:56:09;;;;;;;26.40;15.27;;;;;;;-142.25;100.00;58004.16;5038566;28;20045;-71
2023/01/03 06:58:35;;;;;;;22.33;13.70;;;;;;;-142.25;100.00;58004.16;5041137;28;20072;-72
2023/01/03 07:01:02;;;;;;;21.63;13.67;;;;;;;-142.25;100.00;58004.16;5046077;28;20049;-72
2023/01/03 07:03:29;;;;;;;25.83;15.10;;;;;;;-142.25;100.00;58004.16;5037065;28;20048;-72
2023/01/03 07:05:55;;;;;;;21.03;13.83;;;;;;;-142.25;100.00;58004.16;5037790;28;20037;-71
2023/01/03 07:08:21;;;;;;;23.63;13.70;;;;;;;-142.25;100.00;58004.16;5039977;28;20499;-71
2023/01/03 07:10:46;;;;;;;68.03;27.30;;;;;;;-142.25;100.00;58004.16;5035130;28;20095;-72
2023/01/03 07:15:57;;;;;;;70.37;31.33;;;;;;;-142.25;100.00;58004.16;5036719;28;20052;-73
2023/01/03 07:18:25;;;;;;;55.50;25.30;;;;;;;-142.25;100.00;58004.16;5036451;28;20295;-72
2023/01/03 07:20:50;;;;;;;41.47;20.27;;;;;;;-142.25;100.00;58004.16;5038320;28;20041;-66
2023/01/03 07:23:16;;;;;;;24.33;15.93;;;;;;;-142.25;100.00;58004.16;5034854;28;20052;-68
2023/01/03 07:25:42;;;;;;;38.17;18.57;;;;;;;-142.25;100.00;58004.16;5037232;28;20033;-68
2023/01/03 07:28:12;;;;;;;34.03;19.07;;;;;;;-142.25;100.00;58004.16;5036843;28;20033;-69
2023/01/03 07:30:41;;;;;;;22.77;13.93;;;;;;;-142.25;100.00;58004.16;5037832;28;20048;-67
2023/01/03 07:33:08;;;;;;;16.97;11.10;;;;;;;-142.25;100.00;58004.16;5037720;28;20254;-67
2023/01/03 07:35:35;;;;;;;20.13;12.80;;;;;;;-142.25;100.00;58004.16;5035730;28;20201;-67
2023/01/03 07:38:03;;;;;;;21.53;11.97;;;;;;;-142.25;100.00;58004.16;5034579;28;20458;-67
2023/01/03 07:40:29;;;;;;;14.70;11.40;;;;;;;-142.25;100.00;58004.16;5034320;28;20076;-69
2023/01/03 07:45:41;;;;;;;17.27;11.65;;;;;;;-142.25;100.00;58004.16;5030532;28;20116;-68
2023/01/03 07:48:08;;;;;;;17.33;12.03;;;;;;;-142.25;100.00;58004.16;5030493;28;20132;-68
2023/01/03 07:50:35;;;;;;;15.13;11.07;;;;;;;-142.25;100.00;58004.16;5033029;28;20127;-69
2023/01/03 07:53:01;;;;;;;15.93;11.27;;;;;;;-142.25;100.00;58004.16;5035451;28;20041;-68
2023/01/03 07:55:27;;;;;;;17.00;12.13;;;;;;;-142.25;100.00;58004.16;5036063;28;20053;-69
2023/01/03 07:57:54;;;;;;;18.70;12.57;;;;;;;-142.25;100.00;58004.16;5035224;28;20145;-69
2023/01/03 08:00:21;;;;;;;15.27;9.97;;;;;;;-142.25;100.00;58004.16;5034220;28;20046;-68
2023/01/03 08:02:46;;;;;;;16.80;11.13;;;;;;;-142.25;100.00;58004.16;5034077;28;20760;-70
2023/01/03 08:05:12;;;;;;;14.23;10.50;;;;;;;-142.25;100.00;58004.16;5035687;28;20033;-70
2023/01/03 08:07:38;;;;;;;13.80;9.90;;;;;;;-142.25;100.00;58004.16;5032731;28;20476;-69
2023/01/03 08:15:36;;;;;;;14.07;9.43;;;;;;;-142.25;100.00;58004.16;5036669;28;20081;-69
2023/01/03 08:18:02;;;;;;;15.93;10.10;;;;;;;-142.25;100.00;58004.16;5037731;28;20834;-70
2023/01/03 08:20:28;;;;;;;13.07;9.87;;;;;;;-142.25;100.00;58004.16;5037962;28;20037;-69
2023/01/03 08:22:54;;;;;;;14.03;9.63;;;;;;;-142.25;100.00;58004.16;5033051;28;20067;-66
2023/01/03 08:25:20;;;;;;;15.47;10.17;;;;;;;-142.25;100.00;58004.16;5032731;28;20072;-69
2023/01/03 08:27:46;;;;;;;16.53;11.00;;;;;;;-142.25;100.00;58004.16;5031072;28;20193;-66
2023/01/03 08:30:12;;;;;;;15.07;10.80;;;;;;;-142.25;100.00;58004.16;5030335;28;20041;-63
2023/01/03 08:32:37;;;;;;;15.60;10.53;;;;;;;-142.25;100.00;58004.16;5038083;28;20130;-70
2023/01/03 08:35:04;;;;;;;15.77;11.83;;;;;;;-142.25;100.00;58004.16;5028927;28;20404;-68
2023/01/03 08:37:30;;;;;;;15.77;11.57;;;;;;;-142.25;100.00;58004.16;5029186;28;20043;-67
2023/01/03 08:40:01;;;;;;;16.03;11.17;;;;;;;-142.25;100.00;58004.16;5030409;28;20030;-69
2023/01/03 08:42:32;;;;;;;16.43;10.90;;;;;;;-142.25;100.00;58004.16;5029966;28;20051;-69
2023/01/03 08:45:01;;;;;;;19.47;12.00;;;;;;;-142.25;100.00;58004.16;5033817;28;20059;-69
2023/01/03 08:47:28;;;;;;;15.30;10.33;;;;;;;-142.25;100.00;58004.16;5031890;28;20886;-69
2023/01/03 08:49:55;;;;;;;15.57;10.33;;;;;;;-142.25;100.00;58004.16;5029916;28;20114;-71
2023/01/03 08:52:21;;;;;;;15.63;11.63;;;;;;;-142.25;100.00;58004.16;5029405;28;20476;-69
2023/01/03 08:54:46;;;;;;;19.70;13.77;;;;;;;-142.25;100.00;58004.16;5040038;28;20529;-69
2023/01/03 08:57:12;;;;;;;15.97;12.67;;;;;;;-142.25;100.00;58004.16;5035018;28;20067;-68
2023/01/03 08:59:38;;;;;;;17.10;11.63;;;;;;;-142.25;100.00;58004.16;5031293;28;20259;-68
2023/01/03 09:02:05;;;;;;;16.77;11.90;;;;;;;-142.25;100.00;58004.16;5033492;28;20037;-69
2023/01/03 09:04:30;;;;;;;19.43;13.07;;;;;;;-142.25;100.00;58004.16;5035639;28;20508;-69
2023/01/03 09:06:56;;;;;;;18.23;12.50;;;;;;;-142.25;100.00;58004.16;5034864;28;20033;-69
2023/01/03 09:09:22;;;;;;;18.07;13.60;;;;;;;-142.25;100.00;58004.16;5032606;28;20106;-69
2023/01/03 09:11:47;;;;;;;19.80;13.40;;;;;;;-142.25;100.00;58004.16;5034586;28;20056;-69
2023/01/03 09:14:13;;;;;;;18.20;12.30;;;;;;;-142.25;100.00;58004.16;5033337;28;20045;-68
2023/01/03 09:16:39;;;;;;;17.37;13.33;;;;;;;-142.25;100.00;58004.16;5034062;28;20084;-69
2023/01/03 09:19:05;;;;;;;18.73;13.97;;;;;;;-142.25;100.00;58004.16;5037472;28;20101;-69
2023/01/03 09:21:30;;;;;;;20.60;14.70;;;;;;;-142.25;100.00;58004.16;5034892;28;20036;-69
2023/01/03 09:23:57;;;;;;;18.47;12.87;;;;;;;-142.25;100.00;58004.16;5035001;28;20456;-69
2023/01/03 09:26:23;;;;;;;18.13;13.00;;;;;;;-142.25;100.00;58004.16;5034634;28;20037;-69
2023/01/03 09:28:49;;;;;;;19.10;14.47;;;;;;;-142.25;100.00;58004.16;5035809;28;20051;-70
2023/01/03 09:31:15;;;;;;;21.77;15.00;;;;;;;-142.25;100.00;58004.16;5029401;28;20829;-69
2023/01/03 09:33:41;;;;;;;19.98;14.45;;;;;;;-142.25;100.00;58004.16;5029966;28;20221;-69
2023/01/03 09:36:07;;;;;;;20.87;14.87;;;;;;;-142.25;100.00;58004.16;5037070;28;20531;-70
2023/01/03 09:38:33;;;;;;;20.23;13.77;;;;;;;-142.25;100.00;58004.16;5043021;28;20063;-70
2023/01/03 09:41:01;;;;;;;21.73;15.25;;;;;;;-142.25;100.00;58004.16;5037791;28;20083;-69
2023/01/03 09:43:45;;;;;;;22.60;16.80;;;;;;;-142.25;100.00;58004.16;5035537;28;20051;-70
2023/01/03 09:46:21;;;;;;;21.55;14.55;;;;;;;-142.25;100.00;58004.16;5029421;28;20056;-69
2023/01/03 09:48:48;;;;;;;23.80;16.40;;;;;;;-142.25;100.00;58004.16;5031962;28;20046;-69
2023/01/03 10:03:48;;;;;;;21.25;15.73;;;;;;;-142.25;100.00;58004.16;4980136;28;20046;-69
2023/01/03 10:06:56;;;;;;;26.98;18.00;;;;;;;-142.25;100.00;58004.16;4981892;28;20213;-70
2023/01/03 10:09:35;;;;;;;33.63;21.05;;;;;;;-142.25;100.00;58004.16;4964579;28;20591;-69
2023/01/03 10:12:29;;;;;;;32.88;21.23;;;;;;;-142.25;100.00;58004.16;4979745;28;20106;-69
2023/01/03 10:15:26;;;;;;;37.72;22.95;;;;;;;-142.25;100.00;58004.16;4977157;28;20083;-69
2023/01/03 10:17:54;;;;;;;32.58;20.52;;;;;;;-142.25;100.00;58004.16;4978126;28;20049;-70
2023/01/03 10:20:39;;;;;;;29.77;20.67;;;;;;;-142.25;100.00;58004.16;4981963;28;20366;-67
2023/01/03 10:23:07;;;;;;;31.08;20.05;;;;;;;-142.25;100.00;58004.16;4975252;28;20089;-70
2023/01/03 10:25:37;;;;;;;35.72;22.33;;;;;;;-142.25;100.00;58004.16;4980219;28;20068;-69
2023/01/03 10:28:11;;;;;;;44.55;26.50;;;;;;;-142.25;100.00;58004.16;4977068;28;20523;-69
2023/01/03 10:31:14;;;;;;;36.38;22.50;;;;;;;-142.25;100.00;58004.16;4979513;28;20069;-67
2023/01/03 10:33:47;;;;;;;34.60;21.88;;;;;;;-142.25;100.00;58004.16;5010619;28;20124;-68
2023/01/03 10:36:15;;;;;;;41.70;24.33;;;;;;;-142.25;100.00;58004.16;5033293;28;20590;-69
2023/01/03 10:38:43;;;;;;;36.75;24.98;;;;;;;-142.25;100.00;58004.16;5039203;28;20041;-70
2023/01/03 10:41:21;;;;;;;37.53;24.00;;;;;;;-142.25;100.00;58004.16;5040208;28;20057;-70
2023/01/03 10:43:58;;;;;;;35.65;23.20;;;;;;;-142.25;100.00;58004.16;5035213;28;20041;-69
2023/01/03 10:46:25;;;;;;;24.88;16.10;;;;;;;-142.25;100.00;58004.16;5037550;28;20041;-70
2023/01/03 10:48:53;;;;;;;30.63;18.60;;;;;;;-142.25;100.00;58004.16;5037772;28;20041;-69
2023/01/03 10:51:33;;;;;;;23.13;16.42;;;;;;;-142.25;100.00;58004.16;5037859;28;20049;-69
2023/01/03 10:54:08;;;;;;;19.95;14.48;;;;;;;-142.25;100.00;58004.16;5037484;28;20119;-69
2023/01/03 10:56:35;;;;;;;20.70;14.45;;;;;;;-142.25;100.00;58004.16;5038694;28;20147;-69
2023/01/03 10:59:15;;;;;;;27.85;20.40;;;;;;;-142.25;100.00;58004.16;5035449;28;20079;-69
2023/01/03 11:02:13;;;;;;;26.60;19.00;;;;;;;-142.25;100.00;58004.16;5033519;28;20033;-69
2023/01/03 11:04:40;;;;;;;25.70;15.50;;;;;;;-142.25;100.00;58004.16;5037117;28;20162;-70
2023/01/03 11:07:11;;;;;;;15.55;12.40;;;;;;;-142.25;100.00;58004.16;5036605;28;20033;-70
2023/01/03 11:09:42;;;;;;;18.33;13.07;;;;;;;-142.25;100.00;58004.16;5037286;28;20755;-71
2023/01/03 11:12:18;;;;;;;15.82;12.05;;;;;;;-142.25;100.00;58004.16;5039634;28;20037;-69
2023/01/03 11:14:54;;;;;;;18.33;12.93;;;;;;;-142.25;100.00;58004.16;5049291;28;20422;-71
2023/01/03 11:17:22;;;;;;;13.98;12.18;;;;;;;-142.25;100.00;58004.16;5034977;28;20542;-70
2023/01/03 11:19:49;;;;;;;15.48;11.02;;;;;;;-142.25;100.00;58004.16;5037086;28;20159;-70
2023/01/03 11:22:32;;;;;;;12.27;8.10;;;;;;;-142.25;100.00;58004.16;5042896;28;20642;-70
2023/01/03 11:24:59;;;;;;;13.05;9.00;;;;;;;-142.25;100.00;58004.16;5030368;28;20281;-71
2023/01/03 11:27:47;;;;;;;11.20;7.13;;;;;;;-142.25;100.00;58004.16;5031916;28;20493;-70
2023/01/03 11:30:43;;;;;;;12.23;7.63;;;;;;;-142.25;100.00;58004.16;5036987;28;20053;-69
2023/01/03 11:33:27;;;;;;;9.18;5.90;;;;;;;-142.25;100.00;58004.16;5032272;28;20669;-72
2023/01/03 11:36:11;;;;;;;4.88;3.63;;;;;;;-142.25;100.00;58004.16;5034402;28;20056;-72
2023/01/03 11:39:01;;;;;;;3.90;2.75;;;;;;;-142.25;100.00;58004.16;5030013;28;20036;-67
2023/01/03 11:41:33;;;;;;;3.38;2.42;;;;;;;-142.25;100.00;58004.16;5034154;28;20095;-68
2023/01/03 11:44:02;;;;;;;3.55;3.25;;;;;;;-142.25;100.00;58004.16;5032956;28;20091;-69
2023/01/03 11:46:34;;;;;;;6.13;3.05;;;;;;;-142.25;100.00;58004.16;5033569;28;20045;-68
2023/01/03 11:49:18;;;;;;;3.33;2.33;;;;;;;-142.25;100.00;58004.16;5026192;28;20372;-67
2023/01/03 11:52:05;;;;;;;6.43;2.45;;;;;;;-142.25;100.00;58004.16;5028506;28;20048;-67
2023/01/03 11:54:41;;;;;;;8.50;6.68;;;;;;;-142.25;100.00;58004.16;5032178;28;20135;-67
2023/01/03 11:57:34;;;;;;;6.57;4.38;;;;;;;-142.25;100.00;58004.16;5035267;28;20124;-66
2023/01/03 12:00:31;;;;;;;3.65;3.35;;;;;;;-142.25;100.00;58004.16;5035882;28;20338;-68
2023/01/03 12:03:01;;;;;;;3.20;2.70;;;;;;;-142.25;100.00;58004.16;5035421;28;20045;-69
2023/01/03 12:06:07;;;;;;;3.15;2.85;;;;;;;-142.25;100.00;58004.16;5030603;28;20041;-70
2023/01/03 12:08:41;;;;;;;5.85;2.85;;;;;;;-142.25;100.00;58004.16;5031251;28;20055;-69
2023/01/03 12:11:35;;;;;;;3.90;2.78;;;;;;;-142.25;100.00;58004.16;5032001;28;20040;-68
2023/01/03 12:14:45;;;;;;;3.40;2.80;;;;;;;-142.25;100.00;58004.16;5039875;28;20059;-67
2023/01/03 12:17:24;;;;;;;6.97;3.70;;;;;;;-142.25;100.00;58004.16;4998303;28;20058;-66
2023/01/03 12:19:55;;;;;;;4.43;3.63;;;;;;;-142.25;100.00;58004.16;4998310;28;20512;-65